Time;durP1;ratioP1;P1;durP2;ratioP2;P2;SDS_P1;SDS_P2;PMS_P1;PMS_P2;Temp;Humidity;BMP_temperature;BMP_pressure;BME280_temperature;BME280_humidity;BME280_pressure;Samples;Min_cycle;Max_cycle;Signal;HPM_P1;HPM_P2
2023/01/26 00:02:05;;;;;;;18.17;9.95;;;;;;;;;;5044811;28;20451;-87
2023/01/26 00:04:30;;;;;;;20.67;9.77;;;;;;;;;;5049964;28;20039;-85
2023/01/26 00:06:56;;;;;;;26.73;11.43;;;;;;;;;;5052713;28;20032;-87
2023/01/26 00:09:21;;;;;;;30.23;11.02;;;;;;;;;;5027511;28;20101;-86
2023/01/26 00:11:46;;;;;;;19.77;9.80;;;;;;;;;;5048535;28;20040;-86
2023/01/26 00:14:12;;;;;;;24.40;9.70;;;;;;;;;;5040714;28;20403;-87
2023/01/26 00:16:37;;;;;;;21.13;9.50;;;;;;;;;;5027281;28;20391;-87
2023/01/26 00:19:03;;;;;;;22.33;9.27;;;;;;;;;;5044431;28;20041;-85
2023/01/26 00:21:28;;;;;;;24.42;10.88;;;;;;;;;;5040676;28;20036;-85
2023/01/26 00:23:54;;;;;;;20.30;9.30;;;;;;;;;;5033703;28;20093;-86
2023/01/26 00:26:22;;;;;;;20.33;9.95;;;;;;;;;;5052935;28;20021;-85
2023/01/26 00:28:48;;;;;;;19.83;8.90;;;;;;;;;;5058772;28;20036;-85
2023/01/26 00:31:19;;;;;;;22.80;9.27;;;;;;;;;;5051878;28;20352;-85
2023/01/26 00:33:45;;;;;;;30.73;10.93;;;;;;;;;;5051949;28;20051;-86
2023/01/26 00:36:11;;;;;;;23.33;9.07;;;;;;;;;;5052308;28;20044;-85
2023/01/26 00:38:37;;;;;;;21.75;10.93;;;;;;;;;;5052229;28;20025;-86
2023/01/26 00:41:02;;;;;;;18.42;10.30;;;;;;;;;;5051634;28;20025;-85
2023/01/26 00:43:28;;;;;;;21.52;10.50;;;;;;;;;;5051697;28;20069;-85
2023/01/26 00:45:53;;;;;;;21.77;10.25;;;;;;;;;;5033365;28;20024;-86
2023/01/26 00:48:18;;;;;;;27.08;9.68;;;;;;;;;;5060194;28;20535;-85
2023/01/26 00:50:44;;;;;;;22.67;9.30;;;;;;;;;;5050714;28;20047;-86
2023/01/26 00:53:10;;;;;;;20.98;9.20;;;;;;;;;;5039880;28;20020;-85
2023/01/26 00:55:35;;;;;;;16.50;7.32;;;;;;;;;;5055579;28;20029;-84
2023/01/26 00:58:03;;;;;;;28.35;10.32;;;;;;;;;;5029284;28;20021;-84
2023/01/26 01:00:29;;;;;;;16.80;7.80;;;;;;;;;;5045758;28;20439;-86
2023/01/26 01:02:56;;;;;;;19.90;9.60;;;;;;;;;;5051479;28;20103;-86
2023/01/26 01:05:23;;;;;;;25.23;10.32;;;;;;;;;;5054979;28;20035;-85
2023/01/26 01:07:48;;;;;;;18.23;8.65;;;;;;;;;;5058332;28;20063;-87
2023/01/26 01:10:14;;;;;;;19.25;9.02;;;;;;;;;;5048888;28;20024;-86
2023/01/26 01:12:40;;;;;;;22.75;9.48;;;;;;;;;;5044044;28;20618;-85
2023/01/26 01:15:06;;;;;;;24.40;10.60;;;;;;;;;;5052515;28;20032;-85
2023/01/26 01:17:31;;;;;;;18.70;9.23;;;;;;;;;;5045370;28;20454;-85
2023/01/26 01:19:56;;;;;;;18.38;9.38;;;;;;;;;;5045777;28;20025;-84
2023/01/26 01:22:22;;;;;;;23.13;10.10;;;;;;;;;;5046534;28;20017;-86
2023/01/26 01:24:47;;;;;;;19.70;8.35;;;;;;;;;;5051096;28;20060;-86
2023/01/26 01:27:12;;;;;;;25.02;10.23;;;;;;;;;;5051878;28;20112;-86
2023/01/26 01:29:38;;;;;;;22.55;10.23;;;;;;;;;;5060402;28;20032;-85
2023/01/26 01:32:03;;;;;;;20.52;10.73;;;;;;;;;;5052068;28;20685;-85
2023/01/26 01:34:29;;;;;;;22.73;9.98;;;;;;;;;;5052969;28;20033;-85
2023/01/26 01:36:54;;;;;;;22.15;10.23;;;;;;;;;;5066846;28;20056;-86
2023/01/26 01:39:19;;;;;;;25.05;10.25;;;;;;;;;;5052682;28;20495;-86
2023/01/26 01:41:45;;;;;;;23.58;10.18;;;;;;;;;;5036878;28;20182;-85
2023/01/26 01:44:11;;;;;;;17.42;8.18;;;;;;;;;;5062032;28;20017;-86
2023/01/26 01:46:37;;;;;;;20.15;9.63;;;;;;;;;;5056562;28;20078;-85
2023/01/26 01:49:09;;;;;;;24.98;8.63;;;;;;;;;;5065157;28;20036;-85
2023/01/26 01:51:44;;;;;;;18.67;8.70;;;;;;;;;;5075273;28;20028;-85
2023/01/26 01:54:17;;;;;;;22.95;9.70;;;;;;;;;;5051867;28;20041;-86
2023/01/26 01:56:49;;;;;;;25.55;9.45;;;;;;;;;;5036522;28;20031;-86
2023/01/26 01:59:14;;;;;;;21.63;8.52;;;;;;;;;;5035446;28;20029;-86
2023/01/26 02:01:40;;;;;;;21.17;9.38;;;;;;;;;;5048102;28;20497;-86
2023/01/26 02:04:07;;;;;;;20.17;8.85;;;;;;;;;;5056776;28;20108;-86
2023/01/26 02:06:38;;;;;;;18.90;8.55;;;;;;;;;;5057415;28;20017;-86
2023/01/26 02:09:05;;;;;;;24.42;10.77;;;;;;;;;;5056899;28;20044;-86
2023/01/26 02:11:43;;;;;;;18.13;8.73;;;;;;;;;;5052897;28;20044;-85
2023/01/26 02:14:12;;;;;;;16.90;9.00;;;;;;;;;;5059826;28;20031;-87
2023/01/26 02:16:38;;;;;;;16.90;8.65;;;;;;;;;;5071482;28;20029;-87
2023/01/26 02:19:10;;;;;;;20.05;9.15;;;;;;;;;;5062537;28;20063;-87
2023/01/26 02:21:36;;;;;;;;;;;;;;;;;;5058375;28;20037;-86
2023/01/26 02:24:20;;;;;;;17.83;8.63;;;;;;;;;;5057384;28;20450;-86
2023/01/26 02:26:46;;;;;;;13.38;6.63;;;;;;;;;;5056475;28;20093;-86
2023/01/26 02:29:12;;;;;;;16.23;6.90;;;;;;;;;;5063528;28;20386;-86
2023/01/26 02:31:39;;;;;;;17.40;7.75;;;;;;;;;;5054647;28;20029;-86
2023/01/26 02:34:04;;;;;;;15.43;7.10;;;;;;;;;;5054730;28;20015;-85
2023/01/26 02:36:32;;;;;;;13.38;7.82;;;;;;;;;;5072218;28;20084;-86
2023/01/26 02:39:19;;;;;;;14.27;6.50;;;;;;;;;;5071409;28;20076;-87
2023/01/26 02:44:31;;;;;;;15.00;7.30;;;;;;;;;;5052792;28;20035;-88
2023/01/26 02:46:56;;;;;;;13.70;7.35;;;;;;;;;;5055246;28;20073;-87
2023/01/26 02:52:06;;;;;;;18.63;6.95;;;;;;;;;;5056100;28;20047;-87
2023/01/26 02:57:16;;;;;;;19.92;6.72;;;;;;;;;;5049969;28;20064;-86
2023/01/26 02:59:41;;;;;;;14.63;7.32;;;;;;;;;;5071780;28;20021;-86
2023/01/26 03:02:07;;;;;;;12.57;5.93;;;;;;;;;;5055175;28;20064;-87
2023/01/26 03:04:32;;;;;;;16.77;7.90;;;;;;;;;;5052687;28;20017;-87
2023/01/26 03:06:58;;;;;;;15.73;7.57;;;;;;;;;;5054902;28;20013;-87
2023/01/26 03:09:23;;;;;;;16.15;6.18;;;;;;;;;;5054692;28;20121;-86
2023/01/26 03:11:48;;;;;;;16.00;6.78;;;;;;;;;;5054062;28;20017;-86
2023/01/26 03:14:14;;;;;;;15.05;7.10;;;;;;;;;;5036126;28;20506;-87
2023/01/26 03:16:40;;;;;;;14.73;8.57;;;;;;;;;;5053389;28;20375;-85
2023/01/26 03:29:45;;;;;;;13.05;6.70;;;;;;;;;;5048254;28;20438;-86
2023/01/26 03:32:11;;;;;;;17.23;7.90;;;;;;;;;;5052639;28;20021;-87
2023/01/26 03:34:37;;;;;;;15.38;6.30;;;;;;;;;;5055624;28;20036;-86
2023/01/26 03:37:03;;;;;;;20.50;8.38;;;;;;;;;;5050936;28;20404;-86
2023/01/26 03:56:17;;;;;;;16.67;7.57;;;;;;;;;;5060547;28;20383;-86
2023/01/26 03:58:44;;;;;;;15.60;6.88;;;;;;;;;;5052874;28;20039;-88
2023/01/26 04:01:17;;;;;;;13.00;6.72;;;;;;;;;;5051982;28;20074;-86
2023/01/26 04:09:11;;;;;;;12.98;7.57;;;;;;;;;;5056702;28;20036;-87
2023/01/26 04:11:36;;;;;;;14.30;6.13;;;;;;;;;;5062043;28;20029;-86
2023/01/26 04:22:13;;;;;;;21.33;8.60;;;;;;;;;;5053025;28;20466;-87
2023/01/26 04:24:39;;;;;;;18.98;8.38;;;;;;;;;;5063422;28;20029;-86
2023/01/26 04:27:04;;;;;;;15.27;8.82;;;;;;;;;;5035032;28;20025;-87
2023/01/26 04:29:29;;;;;;;14.70;7.05;;;;;;;;;;5053100;28;20017;-87
2023/01/26 04:31:55;;;;;;;17.60;8.05;;;;;;;;;;5037237;28;20472;-87
2023/01/26 04:34:20;;;;;;;21.88;8.32;;;;;;;;;;5043630;28;20096;-88
2023/01/26 04:36:46;;;;;;;11.80;6.55;;;;;;;;;;5052825;28;20444;-86
2023/01/26 04:39:11;;;;;;;14.82;6.72;;;;;;;;;;5053490;28;20031;-87
2023/01/26 04:41:36;;;;;;;15.20;7.70;;;;;;;;;;5052173;28;20068;-87
2023/01/26 04:44:02;;;;;;;20.25;9.95;;;;;;;;;;5045786;28;20029;-86
2023/01/26 04:46:27;;;;;;;33.25;9.90;;;;;;;;;;5053526;28;20029;-85
2023/01/26 04:48:53;;;;;;;24.38;7.65;;;;;;;;;;5053272;28;20614;-87
2023/01/26 04:51:20;;;;;;;16.65;7.70;;;;;;;;;;5042844;28;20029;-86
2023/01/26 04:53:46;;;;;;;15.68;7.00;;;;;;;;;;5049982;28;20430;-87
2023/01/26 04:56:23;;;;;;;19.25;7.90;;;;;;;;;;5044877;28;20036;-87
2023/01/26 04:58:48;;;;;;;15.23;6.95;;;;;;;;;;5036342;28;20037;-87
2023/01/26 05:01:14;;;;;;;17.67;7.05;;;;;;;;;;5056794;28;20021;-85
2023/01/26 05:03:39;;;;;;;8.00;5.70;;;;;;;;;;5039407;28;20036;-85
2023/01/26 05:06:05;;;;;;;8.23;4.80;;;;;;;;;;5057406;28;20044;-86
2023/01/26 05:08:30;;;;;;;13.63;7.10;;;;;;;;;;5056525;28;20130;-87
2023/01/26 05:10:56;;;;;;;19.40;8.15;;;;;;;;;;5038918;28;20056;-88
2023/01/26 05:13:21;;;;;;;11.60;7.15;;;;;;;;;;5038259;28;20055;-86
2023/01/26 05:15:46;;;;;;;12.57;6.40;;;;;;;;;;5038845;28;20479;-85
2023/01/26 05:18:12;;;;;;;14.40;7.15;;;;;;;;;;5057011;28;20021;-86
2023/01/26 05:20:38;;;;;;;15.60;6.75;;;;;;;;;;5054087;28;20032;-86
2023/01/26 05:23:03;;;;;;;20.65;6.78;;;;;;;;;;5056284;28;20430;-85
2023/01/26 05:25:28;;;;;;;11.15;5.85;;;;;;;;;;5055869;28;20021;-87
2023/01/26 05:27:54;;;;;;;20.50;6.57;;;;;;;;;;5064355;28;20380;-86
2023/01/26 05:30:19;;;;;;;17.33;7.65;;;;;;;;;;5052029;28;20375;-87
2023/01/26 05:32:45;;;;;;;11.48;6.78;;;;;;;;;;5050552;28;20097;-87
2023/01/26 05:35:10;;;;;;;17.98;7.00;;;;;;;;;;5038188;28;20115;-86
2023/01/26 05:37:36;;;;;;;15.35;6.35;;;;;;;;;;5069158;28;20036;-87
2023/01/26 05:40:02;;;;;;;22.35;8.05;;;;;;;;;;5044727;28;20053;-86
2023/01/26 05:42:28;;;;;;;9.90;4.95;;;;;;;;;;5031603;28;20032;-87
2023/01/26 05:44:53;;;;;;;8.88;5.15;;;;;;;;;;5056232;28;20058;-87
2023/01/26 05:47:19;;;;;;;26.23;5.93;;;;;;;;;;5051035;28;20630;-87
2023/01/26 05:49:44;;;;;;;16.33;4.93;;;;;;;;;;5057991;28;20455;-87
2023/01/26 05:52:12;;;;;;;10.07;6.15;;;;;;;;;;5046960;28;20058;-85
2023/01/26 05:54:37;;;;;;;25.25;7.32;;;;;;;;;;5059961;28;20033;-87
2023/01/26 05:57:02;;;;;;;10.15;5.63;;;;;;;;;;5040440;28;20167;-86
2023/01/26 05:59:47;;;;;;;18.83;7.10;;;;;;;;;;5039556;28;20203;-86
2023/01/26 06:02:12;;;;;;;11.48;6.65;;;;;;;;;;5058461;28;20032;-86
2023/01/26 06:04:38;;;;;;;22.25;7.88;;;;;;;;;;5039755;28;20032;-86
2023/01/26 06:07:03;;;;;;;16.20;8.38;;;;;;;;;;5055781;28;20045;-86
2023/01/26 06:09:29;;;;;;;13.77;6.97;;;;;;;;;;5065813;28;20025;-86
2023/01/26 06:11:55;;;;;;;20.58;6.57;;;;;;;;;;5054822;28;20029;-85
2023/01/26 06:14:21;;;;;;;14.98;7.15;;;;;;;;;;5052979;28;20104;-84
2023/01/26 06:16:46;;;;;;;13.70;6.97;;;;;;;;;;5054138;28;20431;-85
2023/01/26 06:19:12;;;;;;;15.00;7.55;;;;;;;;;;5032320;28;20082;-86
2023/01/26 06:21:37;;;;;;;14.45;7.50;;;;;;;;;;5054734;28;20025;-85
2023/01/26 06:24:02;;;;;;;23.67;8.98;;;;;;;;;;5049473;28;20036;-84
2023/01/26 06:26:28;;;;;;;21.85;7.82;;;;;;;;;;5053038;28;20056;-84
2023/01/26 06:28:53;;;;;;;17.08;7.75;;;;;;;;;;5034202;28;20021;-84
2023/01/26 06:31:19;;;;;;;17.88;7.43;;;;;;;;;;5031576;28;20051;-85
2023/01/26 06:33:45;;;;;;;22.27;7.85;;;;;;;;;;5068424;28;20040;-85
2023/01/26 06:36:14;;;;;;;21.05;7.97;;;;;;;;;;5053484;28;20037;-85
2023/01/26 06:38:44;;;;;;;12.15;7.60;;;;;;;;;;5048683;28;20055;-86
2023/01/26 06:41:10;;;;;;;19.08;7.07;;;;;;;;;;5052182;28;20028;-86
2023/01/26 06:43:36;;;;;;;11.60;6.03;;;;;;;;;;5078443;28;20123;-85
2023/01/26 06:46:02;;;;;;;12.98;6.68;;;;;;;;;;5074639;28;20051;-84
2023/01/26 06:48:30;;;;;;;20.90;7.80;;;;;;;;;;5046513;28;20030;-84
2023/01/26 06:50:57;;;;;;;15.40;7.13;;;;;;;;;;5026143;28;20039;-84
2023/01/26 06:53:53;;;;;;;22.55;8.95;;;;;;;;;;5034525;28;20029;-85
2023/01/26 06:56:19;;;;;;;22.73;8.50;;;;;;;;;;5045403;28;20041;-83
2023/01/26 06:58:44;;;;;;;19.33;7.55;;;;;;;;;;5061058;28;20031;-84
2023/01/26 07:01:16;;;;;;;18.58;7.35;;;;;;;;;;5046628;28;20411;-85
2023/01/26 07:03:41;;;;;;;15.77;7.57;;;;;;;;;;5064178;28;20642;-84
2023/01/26 07:06:10;;;;;;;17.63;7.75;;;;;;;;;;5060322;28;20103;-84
2023/01/26 07:08:35;;;;;;;16.48;7.50;;;;;;;;;;5046760;28;20029;-85
2023/01/26 07:11:00;;;;;;;18.95;8.57;;;;;;;;;;5033717;28;20135;-84
2023/01/26 07:13:26;;;;;;;18.50;6.00;;;;;;;;;;5048685;28;20445;-84
2023/01/26 07:15:51;;;;;;;12.05;5.78;;;;;;;;;;5053622;28;20379;-85
2023/01/26 07:18:16;;;;;;;16.85;6.63;;;;;;;;;;5052412;28;20112;-85
2023/01/26 07:20:41;;;;;;;17.35;8.32;;;;;;;;;;5055163;28;20044;-85
2023/01/26 07:23:07;;;;;;;17.95;7.82;;;;;;;;;;5048848;28;20028;-84
2023/01/26 07:25:32;;;;;;;16.35;7.68;;;;;;;;;;5055128;28;20032;-85
2023/01/26 07:27:58;;;;;;;14.50;6.97;;;;;;;;;;5059000;28;20021;-86
2023/01/26 07:30:24;;;;;;;17.02;7.32;;;;;;;;;;5041673;28;20028;-85
2023/01/26 07:32:50;;;;;;;16.85;9.02;;;;;;;;;;5038920;28;20544;-85
2023/01/26 07:35:15;;;;;;;19.52;7.43;;;;;;;;;;5063103;28;20017;-84
2023/01/26 07:37:40;;;;;;;16.88;6.80;;;;;;;;;;5068419;28;20051;-85
2023/01/26 07:40:07;;;;;;;12.52;6.50;;;;;;;;;;5054232;28;20025;-85
2023/01/26 07:42:32;;;;;;;17.80;7.55;;;;;;;;;;5051541;28;20024;-85
2023/01/26 07:44:58;;;;;;;19.77;8.27;;;;;;;;;;5078748;28;20027;-85
2023/01/26 07:47:24;;;;;;;13.65;7.70;;;;;;;;;;5075017;28;20032;-85
2023/01/26 07:49:49;;;;;;;10.88;6.20;;;;;;;;;;5060093;28;20032;-87
2023/01/26 07:52:14;;;;;;;17.23;7.32;;;;;;;;;;5037858;28;20036;-88
2023/01/26 07:54:40;;;;;;;15.57;6.85;;;;;;;;;;5055198;28;20029;-87
2023/01/26 07:57:08;;;;;;;10.43;6.05;;;;;;;;;;5054414;28;20025;-87
2023/01/26 07:59:33;;;;;;;14.93;7.07;;;;;;;;;;5035291;28;20040;-88
2023/01/26 08:01:59;;;;;;;12.20;6.38;;;;;;;;;;5053203;28;20034;-87
2023/01/26 08:04:24;;;;;;;17.48;6.63;;;;;;;;;;5060010;28;20033;-86
2023/01/26 08:06:51;;;;;;;12.52;6.53;;;;;;;;;;5055254;28;20025;-87
2023/01/26 08:09:16;;;;;;;12.25;6.13;;;;;;;;;;5055793;28;20031;-87
2023/01/26 08:11:42;;;;;;;8.82;5.28;;;;;;;;;;5064174;28;20107;-87
2023/01/26 08:14:07;;;;;;;11.88;5.95;;;;;;;;;;5075336;28;20048;-87
2023/01/26 08:16:32;;;;;;;14.25;6.55;;;;;;;;;;5078526;28;20048;-87
2023/01/26 08:18:58;;;;;;;16.55;6.15;;;;;;;;;;5081498;28;20032;-87
2023/01/26 08:21:23;;;;;;;11.82;6.03;;;;;;;;;;5078700;28;20035;-85
2023/01/26 08:23:50;;;;;;;10.35;5.85;;;;;;;;;;5073245;28;20024;-86
2023/01/26 08:26:17;;;;;;;13.60;6.47;;;;;;;;;;5073792;28;20386;-86
2023/01/26 08:28:43;;;;;;;17.92;7.53;;;;;;;;;;5054792;28;20029;-86
2023/01/26 08:31:11;;;;;;;14.70;7.30;;;;;;;;;;5072749;28;20029;-86
2023/01/26 08:33:38;;;;;;;12.60;5.97;;;;;;;;;;5078152;28;20059;-86
2023/01/26 08:36:05;;;;;;;13.18;6.07;;;;;;;;;;5078176;28;20037;-86
2023/01/26 08:38:32;;;;;;;13.30;7.97;;;;;;;;;;5077696;28;20060;-85
2023/01/26 08:40:59;;;;;;;16.80;8.07;;;;;;;;;;5077088;28;20027;-86
2023/01/26 08:43:24;;;;;;;15.80;6.82;;;;;;;;;;5078387;28;20024;-87
2023/01/26 08:45:50;;;;;;;14.25;6.90;;;;;;;;;;5059145;28;20016;-86
2023/01/26 08:48:15;;;;;;;17.30;5.75;;;;;;;;;;5058796;28;20054;-86
2023/01/26 08:50:41;;;;;;;16.30;7.68;;;;;;;;;;5077230;28;20036;-86
2023/01/26 08:53:06;;;;;;;16.27;6.72;;;;;;;;;;5077077;28;20028;-86
2023/01/26 08:55:32;;;;;;;12.13;5.70;;;;;;;;;;5077023;28;20030;-87
2023/01/26 08:57:57;;;;;;;14.45;5.72;;;;;;;;;;5059421;28;20020;-86
2023/01/26 09:00:24;;;;;;;13.80;5.57;;;;;;;;;;5064596;28;20024;-86
2023/01/26 09:02:50;;;;;;;15.45;6.88;;;;;;;;;;5077053;28;20033;-87
2023/01/26 09:05:15;;;;;;;10.80;5.53;;;;;;;;;;5042243;28;20024;-85
2023/01/26 09:07:41;;;;;;;12.13;5.85;;;;;;;;;;5056545;28;20368;-86
2023/01/26 09:10:07;;;;;;;8.93;5.50;;;;;;;;;;5057304;28;20040;-85
2023/01/26 09:12:32;;;;;;;11.10;5.00;;;;;;;;;;5055576;28;20104;-85
2023/01/26 09:14:58;;;;;;;7.85;4.65;;;;;;;;;;5049235;28;20423;-87
2023/01/26 09:17:23;;;;;;;9.35;5.00;;;;;;;;;;5048294;28;20037;-85
2023/01/26 09:19:48;;;;;;;8.77;4.28;;;;;;;;;;5057918;28;20063;-85
2023/01/26 09:22:14;;;;;;;11.13;5.97;;;;;;;;;;5057617;28;20119;-86
2023/01/26 09:24:39;;;;;;;12.48;6.40;;;;;;;;;;5038944;28;20052;-86
2023/01/26 09:27:04;;;;;;;16.17;6.53;;;;;;;;;;5032244;28;20020;-85
2023/01/26 09:29:30;;;;;;;12.75;5.45;;;;;;;;;;5056369;28;20020;-86
2023/01/26 09:31:55;;;;;;;12.13;5.47;;;;;;;;;;5057573;28;20037;-86
2023/01/26 09:34:20;;;;;;;9.15;4.55;;;;;;;;;;5056612;28;20036;-86
2023/01/26 09:36:46;;;;;;;10.85;5.55;;;;;;;;;;5056892;28;20029;-87
2023/01/26 09:39:11;;;;;;;8.98;4.32;;;;;;;;;;5057652;28;20021;-87
2023/01/26 09:41:50;;;;;;;8.00;4.00;;;;;;;;;;5054743;28;20036;-87
2023/01/26 09:44:23;;;;;;;7.70;3.85;;;;;;;;;;5040053;28;20047;-86
2023/01/26 09:46:58;;;;;;;9.75;4.65;;;;;;;;;;5038389;28;20044;-86
2023/01/26 09:49:48;;;;;;;6.53;4.55;;;;;;;;;;5043635;28;20116;-87
2023/01/26 09:52:34;;;;;;;8.15;3.90;;;;;;;;;;5043340;28;20155;-87
2023/01/26 09:55:04;;;;;;;6.75;3.50;;;;;;;;;;5074071;28;20032;-87
2023/01/26 09:57:45;;;;;;;5.55;2.97;;;;;;;;;;5074834;28;20094;-88
2023/01/26 10:00:26;;;;;;;5.85;3.70;;;;;;;;;;5054992;28;20033;-87
2023/01/26 10:02:59;;;;;;;4.80;3.42;;;;;;;;;;5050782;28;20035;-87
2023/01/26 10:05:46;;;;;;;10.98;4.15;;;;;;;;;;5042546;28;20391;-86
2023/01/26 10:08:15;;;;;;;7.55;4.22;;;;;;;;;;5054028;28;20025;-86
2023/01/26 10:10:47;;;;;;;5.63;3.05;;;;;;;;;;5056376;28;20078;-86
2023/01/26 10:13:14;;;;;;;5.97;3.88;;;;;;;;;;5058461;28;20048;-85
2023/01/26 10:15:47;;;;;;;5.82;3.20;;;;;;;;;;5033009;28;20056;-87
2023/01/26 10:18:21;;;;;;;10.35;4.43;;;;;;;;;;5047117;28;20051;-87
2023/01/26 10:20:53;;;;;;;13.18;4.22;;;;;;;;;;5031976;28;20033;-87
2023/01/26 10:23:22;;;;;;;;;;;;;;;;;;5042454;28;20112;-87
2023/01/26 10:25:49;;;;;;;6.75;4.15;;;;;;;;;;5025934;28;19970;-86
2023/01/26 10:28:16;;;;;;;5.80;3.38;;;;;;;;;;5045779;28;20017;-85
2023/01/26 10:30:44;;;;;;;9.13;4.32;;;;;;;;;;5042622;28;20037;-88
2023/01/26 10:33:34;;;;;;;7.53;4.28;;;;;;;;;;5027615;28;20029;-86
2023/01/26 10:36:02;;;;;;;8.55;3.92;;;;;;;;;;5041356;28;20284;-85
2023/01/26 10:38:36;;;;;;;10.85;4.00;;;;;;;;;;5040848;28;20064;-87
2023/01/26 10:41:04;;;;;;;10.43;4.13;;;;;;;;;;5025524;28;20119;-87
2023/01/26 10:43:36;;;;;;;5.82;3.03;;;;;;;;;;5046397;28;20060;-86
2023/01/26 10:46:03;;;;;;;6.25;4.28;;;;;;;;;;5041833;28;20033;-85
2023/01/26 10:48:29;;;;;;;7.93;3.80;;;;;;;;;;5036740;28;20029;-87
2023/01/26 10:54:22;;;;;;;4.60;2.47;;;;;;;;;;5038147;28;20036;-86
2023/01/26 10:56:51;;;;;;;7.88;4.22;;;;;;;;;;5022765;28;20044;-84
2023/01/26 10:59:47;;;;;;;8.70;3.88;;;;;;;;;;5038247;28;20065;-86
2023/01/26 11:02:18;;;;;;;7.40;4.35;;;;;;;;;;5029918;28;20037;-85
2023/01/26 11:05:08;;;;;;;7.00;3.77;;;;;;;;;;5040415;28;20033;-86
2023/01/26 11:07:38;;;;;;;4.65;2.55;;;;;;;;;;5035715;28;20258;-87
2023/01/26 11:10:21;;;;;;;11.75;3.25;;;;;;;;;;5031490;28;20135;-85
2023/01/26 11:12:46;;;;;;;6.60;3.40;;;;;;;;;;5034796;28;20119;-86
2023/01/26 11:15:23;;;;;;;16.45;3.97;;;;;;;;;;5035596;28;20079;-86
2023/01/26 11:17:51;;;;;;;7.82;4.10;;;;;;;;;;5053721;28;20029;-86
2023/01/26 11:20:37;;;;;;;8.23;3.53;;;;;;;;;;5034553;28;20062;-86
2023/01/26 11:23:02;;;;;;;5.80;3.17;;;;;;;;;;5043132;28;20041;-85
2023/01/26 11:25:44;;;;;;;6.45;2.95;;;;;;;;;;5023597;28;20057;-85
2023/01/26 11:28:24;;;;;;;6.85;3.45;;;;;;;;;;5042207;28;20113;-86
2023/01/26 11:31:15;;;;;;;8.38;4.55;;;;;;;;;;5036426;28;20033;-86
2023/01/26 11:34:04;;;;;;;7.15;3.40;;;;;;;;;;5043104;28;20052;-85
2023/01/26 11:37:11;;;;;;;11.00;4.05;;;;;;;;;;5043816;28;20025;-86
2023/01/26 11:39:58;;;;;;;7.75;4.05;;;;;;;;;;5003947;28;20041;-86
2023/01/26 11:42:29;;;;;;;2.92;2.53;;;;;;;;;;5038122;28;20030;-86
2023/01/26 11:45:07;;;;;;;8.63;2.92;;;;;;;;;;5039690;28;20021;-85
2023/01/26 11:47:41;;;;;;;10.10;3.97;;;;;;;;;;5026852;28;20088;-85
2023/01/26 11:50:31;;;;;;;6.70;4.00;;;;;;;;;;5052999;28;20029;-87
2023/01/26 11:53:30;;;;;;;5.20;3.38;;;;;;;;;;5045007;28;20017;-86
2023/01/26 11:56:12;;;;;;;7.30;3.92;;;;;;;;;;5040482;28;20072;-86
2023/01/26 11:58:54;;;;;;;7.10;3.53;;;;;;;;;;5040882;28;20037;-86
2023/01/26 12:01:27;;;;;;;4.47;3.13;;;;;;;;;;5038683;28;20029;-86
2023/01/26 12:03:53;;;;;;;8.93;4.15;;;;;;;;;;5035237;28;20037;-85
2023/01/26 12:06:28;;;;;;;10.88;4.63;;;;;;;;;;5053879;28;20025;-86
2023/01/26 12:09:32;;;;;;;13.73;5.80;;;;;;;;;;5067298;28;20070;-85
2023/01/26 12:12:09;;;;;;;8.50;4.13;;;;;;;;;;5073630;28;20036;-86
2023/01/26 12:14:49;;;;;;;6.55;3.40;;;;;;;;;;5054590;28;20025;-85
2023/01/26 12:17:47;;;;;;;8.85;3.72;;;;;;;;;;5037313;28;20021;-85
2023/01/26 12:20:39;;;;;;;5.32;2.72;;;;;;;;;;5045245;28;20049;-86
2023/01/26 12:23:15;;;;;;;7.30;3.63;;;;;;;;;;5053861;28;20515;-86
2023/01/26 12:25:45;;;;;;;6.32;3.30;;;;;;;;;;5035408;28;20384;-86
2023/01/26 12:28:29;;;;;;;8.48;3.97;;;;;;;;;;5052470;28;20036;-85
2023/01/26 12:31:08;;;;;;;11.27;5.25;;;;;;;;;;5051104;28;20495;-85
2023/01/26 12:33:35;;;;;;;10.57;4.57;;;;;;;;;;5037195;28;20499;-86
2023/01/26 12:36:16;;;;;;;10.38;4.80;;;;;;;;;;5038926;28;20084;-86
2023/01/26 12:38:44;;;;;;;15.70;6.03;;;;;;;;;;5036818;28;20144;-86
2023/01/26 12:41:44;;;;;;;7.65;4.95;;;;;;;;;;5030949;28;20045;-86
2023/01/26 12:44:16;;;;;;;11.77;6.18;;;;;;;;;;5037682;28;20369;-84
2023/01/26 12:46:49;;;;;;;7.65;4.70;;;;;;;;;;5019916;28;20463;-86
2023/01/26 12:49:43;;;;;;;14.40;7.07;;;;;;;;;;5036744;28;21289;-85
2023/01/26 12:52:19;;;;;;;11.57;5.18;;;;;;;;;;5019152;28;20103;-86
2023/01/26 12:55:17;;;;;;;15.07;5.32;;;;;;;;;;5038575;28;20471;-85
2023/01/26 12:57:52;;;;;;;10.60;5.18;;;;;;;;;;5022193;28;20503;-87
2023/01/26 13:00:24;;;;;;;14.77;6.35;;;;;;;;;;5019087;28;20033;-86
2023/01/26 13:02:58;;;;;;;9.25;5.32;;;;;;;;;;5035167;28;20056;-86
2023/01/26 13:05:35;;;;;;;8.27;4.95;;;;;;;;;;5037817;28;20022;-86
2023/01/26 13:08:29;;;;;;;10.90;5.57;;;;;;;;;;5037731;28;20024;-86
2023/01/26 13:10:55;;;;;;;9.07;4.30;;;;;;;;;;5021779;28;20515;-87
2023/01/26 13:13:31;;;;;;;13.23;5.32;;;;;;;;;;5021316;28;20059;-87
2023/01/26 13:16:14;;;;;;;9.27;5.07;;;;;;;;;;5047796;28;20033;-86
2023/01/26 13:18:54;;;;;;;13.00;6.18;;;;;;;;;;5044011;28;20039;-85
2023/01/26 13:21:38;;;;;;;20.60;7.53;;;;;;;;;;5046880;28;20025;-87
2023/01/26 13:24:16;;;;;;;10.60;5.03;;;;;;;;;;5031099;28;20025;-86
2023/01/26 13:26:52;;;;;;;14.82;6.25;;;;;;;;;;5048966;28;20360;-86
2023/01/26 13:29:26;;;;;;;12.82;6.18;;;;;;;;;;5047760;28;20082;-87
2023/01/26 13:32:00;;;;;;;12.88;5.38;;;;;;;;;;5043774;28;20029;-86
2023/01/26 13:34:29;;;;;;;15.80;5.90;;;;;;;;;;5040595;28;20029;-86
2023/01/26 13:37:03;;;;;;;8.07;4.53;;;;;;;;;;5040905;28;20748;-85
2023/01/26 13:39:33;;;;;;;13.85;5.85;;;;;;;;;;5043950;28;20090;-86
2023/01/26 13:41:59;;;;;;;11.20;5.28;;;;;;;;;;5042762;28;20029;-86
2023/01/26 13:44:38;;;;;;;13.40;6.38;;;;;;;;;;5042966;28;20044;-86
2023/01/26 13:47:12;;;;;;;9.15;4.75;;;;;;;;;;5040351;28;20057;-85
2023/01/26 13:49:42;;;;;;;12.27;6.13;;;;;;;;;;5022215;28;20048;-86
2023/01/26 13:52:19;;;;;;;12.95;5.55;;;;;;;;;;5039621;28;20399;-86
2023/01/26 13:54:45;;;;;;;8.13;5.45;;;;;;;;;;5039784;28;20033;-85
2023/01/26 13:57:18;;;;;;;13.18;6.50;;;;;;;;;;5039468;28;20028;-83
2023/01/26 13:59:57;;;;;;;16.90;7.50;;;;;;;;;;5028871;28;20025;-86
2023/01/26 14:02:34;;;;;;;12.07;6.93;;;;;;;;;;5046327;28;20057;-86
2023/01/26 14:05:02;;;;;;;11.13;6.10;;;;;;;;;;5045778;28;20033;-87
2023/01/26 14:07:31;;;;;;;9.90;5.95;;;;;;;;;;5045295;28;20033;-86
2023/01/26 14:09:59;;;;;;;21.73;5.32;;;;;;;;;;5054344;28;20487;-87
2023/01/26 14:12:56;;;;;;;11.77;5.63;;;;;;;;;;5067687;28;20475;-86
2023/01/26 14:15:30;;;;;;;9.80;3.97;;;;;;;;;;5017895;28;20402;-84
2023/01/26 14:18:00;;;;;;;19.50;6.25;;;;;;;;;;5058999;28;20028;-85
2023/01/26 14:20:32;;;;;;;14.98;6.13;;;;;;;;;;5052488;28;20094;-87
2023/01/26 14:23:06;;;;;;;11.85;5.72;;;;;;;;;;5041641;28;20105;-87
2023/01/26 14:25:33;;;;;;;12.88;6.72;;;;;;;;;;5051944;28;20028;-86
2023/01/26 14:27:58;;;;;;;12.20;5.10;;;;;;;;;;5025002;28;20029;-86
2023/01/26 14:30:26;;;;;;;14.00;6.43;;;;;;;;;;5028305;28;20032;-87
2023/01/26 14:33:02;;;;;;;11.02;5.05;;;;;;;;;;5044126;28;20093;-85
2023/01/26 14:35:27;;;;;;;11.50;5.03;;;;;;;;;;5041115;28;20021;-86
2023/01/26 14:38:14;;;;;;;11.60;7.38;;;;;;;;;;5048194;28;20020;-86
2023/01/26 14:40:52;;;;;;;13.63;5.78;;;;;;;;;;5040836;28;20030;-87
2023/01/26 14:43:28;;;;;;;12.32;5.38;;;;;;;;;;5055433;28;20024;-86
2023/01/26 14:45:56;;;;;;;11.25;5.38;;;;;;;;;;5039952;28;20021;-87
2023/01/26 14:48:26;;;;;;;11.25;5.68;;;;;;;;;;5038083;28;20135;-87
2023/01/26 14:50:51;;;;;;;15.63;6.75;;;;;;;;;;5057381;28;20356;-85
2023/01/26 14:53:20;;;;;;;14.27;5.68;;;;;;;;;;5037192;28;20573;-87
2023/01/26 14:55:46;;;;;;;18.08;6.57;;;;;;;;;;5037397;28;20325;-84
2023/01/26 14:58:18;;;;;;;15.20;5.70;;;;;;;;;;5038752;28;20126;-85
2023/01/26 15:00:48;;;;;;;17.73;6.50;;;;;;;;;;5053421;28;20024;-86
2023/01/26 15:03:25;;;;;;;14.48;6.30;;;;;;;;;;5043353;28;20040;-87
2023/01/26 15:06:19;;;;;;;11.52;5.63;;;;;;;;;;5054965;28;20135;-85
2023/01/26 15:09:22;;;;;;;11.38;6.60;;;;;;;;;;5047894;28;20021;-85
2023/01/26 15:12:16;;;;;;;13.65;5.90;;;;;;;;;;5020181;28;20449;-86
2023/01/26 15:14:45;;;;;;;8.95;4.28;;;;;;;;;;5027171;28;20033;-87
2023/01/26 15:17:39;;;;;;;9.73;5.22;;;;;;;;;;5031388;28;20057;-87
2023/01/26 15:20:27;;;;;;;9.73;4.78;;;;;;;;;;5036843;28;20033;-87
2023/01/26 15:22:53;;;;;;;9.05;4.68;;;;;;;;;;5016852;28;20041;-87
2023/01/26 15:25:31;;;;;;;11.55;5.28;;;;;;;;;;5048076;28;20087;-87
2023/01/26 15:27:58;;;;;;;10.90;5.60;;;;;;;;;;5053796;28;20037;-87
2023/01/26 15:30:27;;;;;;;13.75;7.07;;;;;;;;;;5045499;28;20021;-88
2023/01/26 15:32:53;;;;;;;12.68;6.10;;;;;;;;;;5037957;28;20032;-88
2023/01/26 15:35:30;;;;;;;12.48;5.57;;;;;;;;;;5037535;28;20033;-87
2023/01/26 15:37:59;;;;;;;12.48;6.05;;;;;;;;;;5053640;28;20028;-88
2023/01/26 15:40:24;;;;;;;13.73;6.20;;;;;;;;;;5037345;28;20380;-86
2023/01/26 15:42:49;;;;;;;11.75;5.55;;;;;;;;;;5065527;28;20052;-88
2023/01/26 15:45:25;;;;;;;16.45;6.10;;;;;;;;;;5077794;28;20103;-87